Terminal Aerodrome Forecast
Issued by NWS Charleston, WV

Current Version | Previous Version | Graphics & Text | Print | Product List | Glossary On
Versions: 1 2 3 4 5 6 7 8 9 10 11 12 13 14 15 16 17 18 19 20 21 22 23 24 25 26
000
FTUS41 KRLX 140500
TAFCRW
TAF
KCRW 140535Z 1406/1506 18011G19KT P6SM SCT200
     FM141500 20015G23KT P6SM BKN080
     FM141800 22013G20KT 5SM SHRA VCTS OVC040CB
     FM142300 19009G14KT P6SM OVC035
     FM150100 18008KT 5SM SHRA VCTS OVC022CB=

USA.gov is the U.S. government's official web portal to all federal, state and local government web resources and services.